sensor_id;sensor_type;location;lat;lon;timestamp;P1;durP1;ratioP1;P2;durP2;ratioP2
17790;SDS011;9019;48.132;-1.210;2022-11-11T00:01:12;21.10;;;13.70;;
17790;SDS011;9019;48.132;-1.210;2022-11-11T00:03:39;25.13;;;14.53;;
17790;SDS011;9019;48.132;-1.210;2022-11-11T00:06:08;27.23;;;15.33;;
17790;SDS011;9019;48.132;-1.210;2022-11-11T00:08:35;24.53;;;14.93;;
17790;SDS011;9019;48.132;-1.210;2022-11-11T00:11:04;23.53;;;14.53;;
17790;SDS011;9019;48.132;-1.210;2022-11-11T00:13:32;24.33;;;15.23;;
17790;SDS011;9019;48.132;-1.210;2022-11-11T00:16:03;26.30;;;14.63;;
17790;SDS011;9019;48.132;-1.210;2022-11-11T00:18:30;21.77;;;13.77;;
17790;SDS011;9019;48.132;-1.210;2022-11-11T00:21:15;20.77;;;14.10;;
17790;SDS011;9019;48.132;-1.210;2022-11-11T00:23:59;21.10;;;13.53;;
17790;SDS011;9019;48.132;-1.210;2022-11-11T00:26:45;19.70;;;13.13;;
17790;SDS011;9019;48.132;-1.210;2022-11-11T00:29:13;19.00;;;12.63;;
17790;SDS011;9019;48.132;-1.210;2022-11-11T00:31:40;16.67;;;11.30;;
17790;SDS011;9019;48.132;-1.210;2022-11-11T00:34:21;17.27;;;11.83;;
17790;SDS011;9019;48.132;-1.210;2022-11-11T00:36:48;17.73;;;11.63;;
17790;SDS011;9019;48.132;-1.210;2022-11-11T00:39:14;18.63;;;11.10;;
17790;SDS011;9019;48.132;-1.210;2022-11-11T00:41:41;20.03;;;11.63;;
17790;SDS011;9019;48.132;-1.210;2022-11-11T00:44:10;17.13;;;11.33;;
17790;SDS011;9019;48.132;-1.210;2022-11-11T00:46:37;18.40;;;11.60;;
17790;SDS011;9019;48.132;-1.210;2022-11-11T00:49:22;16.97;;;11.03;;
17790;SDS011;9019;48.132;-1.210;2022-11-11T00:52:06;16.07;;;10.83;;
17790;SDS011;9019;48.132;-1.210;2022-11-11T00:54:33;16.90;;;11.30;;
17790;SDS011;9019;48.132;-1.210;2022-11-11T00:57:01;19.07;;;11.93;;
17790;SDS011;9019;48.132;-1.210;2022-11-11T00:59:29;21.00;;;11.80;;
17790;SDS011;9019;48.132;-1.210;2022-11-11T01:01:56;16.83;;;11.17;;
17790;SDS011;9019;48.132;-1.210;2022-11-11T01:04:24;18.97;;;11.80;;
17790;SDS011;9019;48.132;-1.210;2022-11-11T01:06:51;18.57;;;11.27;;
17790;SDS011;9019;48.132;-1.210;2022-11-11T01:09:18;19.50;;;11.63;;
17790;SDS011;9019;48.132;-1.210;2022-11-11T01:11:45;17.33;;;10.97;;
17790;SDS011;9019;48.132;-1.210;2022-11-11T01:14:12;16.73;;;10.97;;
17790;SDS011;9019;48.132;-1.210;2022-11-11T01:16:41;18.20;;;10.57;;
17790;SDS011;9019;48.132;-1.210;2022-11-11T01:19:08;18.57;;;10.67;;
17790;SDS011;9019;48.132;-1.210;2022-11-11T01:21:35;16.90;;;10.20;;
17790;SDS011;9019;48.132;-1.210;2022-11-11T01:24:02;21.50;;;10.10;;
17790;SDS011;9019;48.132;-1.210;2022-11-11T01:26:30;15.77;;;9.70;;
17790;SDS011;9019;48.132;-1.210;2022-11-11T01:28:57;14.87;;;10.17;;
17790;SDS011;9019;48.132;-1.210;2022-11-11T01:31:25;15.37;;;8.90;;
17790;SDS011;9019;48.132;-1.210;2022-11-11T01:33:54;13.47;;;9.47;;
17790;SDS011;9019;48.132;-1.210;2022-11-11T01:36:21;15.73;;;9.53;;
17790;SDS011;9019;48.132;-1.210;2022-11-11T01:38:50;15.97;;;9.43;;
17790;SDS011;9019;48.132;-1.210;2022-11-11T01:41:18;12.93;;;8.60;;
17790;SDS011;9019;48.132;-1.210;2022-11-11T01:43:58;15.83;;;9.00;;
17790;SDS011;9019;48.132;-1.210;2022-11-11T01:46:30;15.40;;;9.17;;
17790;SDS011;9019;48.132;-1.210;2022-11-11T01:49:03;16.07;;;9.27;;
17790;SDS011;9019;48.132;-1.210;2022-11-11T01:51:46;18.30;;;9.53;;
17790;SDS011;9019;48.132;-1.210;2022-11-11T01:54:16;17.80;;;9.53;;
17790;SDS011;9019;48.132;-1.210;2022-11-11T01:56:45;15.77;;;8.10;;
17790;SDS011;9019;48.132;-1.210;2022-11-11T01:59:14;13.93;;;8.23;;
17790;SDS011;9019;48.132;-1.210;2022-11-11T02:01:42;18.03;;;9.13;;
17790;SDS011;9019;48.132;-1.210;2022-11-11T02:04:11;20.70;;;9.33;;
17790;SDS011;9019;48.132;-1.210;2022-11-11T02:06:57;18.43;;;9.30;;
17790;SDS011;9019;48.132;-1.210;2022-11-11T02:09:24;17.70;;;9.53;;
17790;SDS011;9019;48.132;-1.210;2022-11-11T02:11:52;22.27;;;9.90;;
17790;SDS011;9019;48.132;-1.210;2022-11-11T02:14:38;21.33;;;10.10;;
17790;SDS011;9019;48.132;-1.210;2022-11-11T02:17:07;21.03;;;10.47;;
17790;SDS011;9019;48.132;-1.210;2022-11-11T02:19:39;19.57;;;9.43;;
17790;SDS011;9019;48.132;-1.210;2022-11-11T02:22:10;23.07;;;10.57;;
17790;SDS011;9019;48.132;-1.210;2022-11-11T02:24:40;18.37;;;10.37;;
17790;SDS011;9019;48.132;-1.210;2022-11-11T02:27:07;18.60;;;9.77;;
17790;SDS011;9019;48.132;-1.210;2022-11-11T02:29:36;18.90;;;10.37;;
17790;SDS011;9019;48.132;-1.210;2022-11-11T02:32:04;20.57;;;10.17;;
17790;SDS011;9019;48.132;-1.210;2022-11-11T02:34:32;16.03;;;9.23;;
17790;SDS011;9019;48.132;-1.210;2022-11-11T02:36:59;19.50;;;9.67;;
17790;SDS011;9019;48.132;-1.210;2022-11-11T02:39:28;22.10;;;9.10;;
17790;SDS011;9019;48.132;-1.210;2022-11-11T02:41:57;14.73;;;7.67;;
17790;SDS011;9019;48.132;-1.210;2022-11-11T02:44:24;15.00;;;7.27;;
17790;SDS011;9019;48.132;-1.210;2022-11-11T02:46:51;14.37;;;7.60;;
17790;SDS011;9019;48.132;-1.210;2022-11-11T02:49:19;13.63;;;7.73;;
17790;SDS011;9019;48.132;-1.210;2022-11-11T02:51:46;12.53;;;7.40;;
17790;SDS011;9019;48.132;-1.210;2022-11-11T02:54:13;14.97;;;6.63;;
17790;SDS011;9019;48.132;-1.210;2022-11-11T02:56:40;14.60;;;7.10;;
17790;SDS011;9019;48.132;-1.210;2022-11-11T02:59:26;15.47;;;6.83;;
17790;SDS011;9019;48.132;-1.210;2022-11-11T03:01:53;17.57;;;7.10;;
17790;SDS011;9019;48.132;-1.210;2022-11-11T03:04:21;14.73;;;6.97;;
17790;SDS011;9019;48.132;-1.210;2022-11-11T03:06:48;14.43;;;7.73;;
17790;SDS011;9019;48.132;-1.210;2022-11-11T03:09:15;14.67;;;7.57;;
17790;SDS011;9019;48.132;-1.210;2022-11-11T03:11:42;15.93;;;7.53;;
17790;SDS011;9019;48.132;-1.210;2022-11-11T03:14:09;14.73;;;7.70;;
17790;SDS011;9019;48.132;-1.210;2022-11-11T03:16:38;16.37;;;8.47;;
17790;SDS011;9019;48.132;-1.210;2022-11-11T03:19:23;16.33;;;8.63;;
17790;SDS011;9019;48.132;-1.210;2022-11-11T03:21:50;18.50;;;8.00;;
17790;SDS011;9019;48.132;-1.210;2022-11-11T03:24:16;17.67;;;8.00;;
17790;SDS011;9019;48.132;-1.210;2022-11-11T03:26:43;13.63;;;7.77;;
17790;SDS011;9019;48.132;-1.210;2022-11-11T03:29:09;12.63;;;6.73;;
17790;SDS011;9019;48.132;-1.210;2022-11-11T03:31:38;15.63;;;6.90;;
17790;SDS011;9019;48.132;-1.210;2022-11-11T03:34:05;11.73;;;6.17;;
17790;SDS011;9019;48.132;-1.210;2022-11-11T03:36:45;14.53;;;6.77;;
17790;SDS011;9019;48.132;-1.210;2022-11-11T03:39:29;14.00;;;6.73;;
17790;SDS011;9019;48.132;-1.210;2022-11-11T03:41:57;14.83;;;6.60;;
17790;SDS011;9019;48.132;-1.210;2022-11-11T03:44:24;14.23;;;7.00;;
17790;SDS011;9019;48.132;-1.210;2022-11-11T03:46:53;16.77;;;7.30;;
17790;SDS011;9019;48.132;-1.210;2022-11-11T03:49:21;13.43;;;7.10;;
17790;SDS011;9019;48.132;-1.210;2022-11-11T03:51:48;15.17;;;7.87;;
17790;SDS011;9019;48.132;-1.210;2022-11-11T03:54:15;17.03;;;8.30;;
17790;SDS011;9019;48.132;-1.210;2022-11-11T03:56:42;16.20;;;8.80;;
17790;SDS011;9019;48.132;-1.210;2022-11-11T03:59:09;15.67;;;8.63;;
17790;SDS011;9019;48.132;-1.210;2022-11-11T04:01:36;19.90;;;8.43;;
17790;SDS011;9019;48.132;-1.210;2022-11-11T04:04:23;15.17;;;7.20;;
17790;SDS011;9019;48.132;-1.210;2022-11-11T04:07:07;13.67;;;6.77;;
17790;SDS011;9019;48.132;-1.210;2022-11-11T04:09:52;12.90;;;7.03;;
17790;SDS011;9019;48.132;-1.210;2022-11-11T04:12:37;13.20;;;7.30;;
17790;SDS011;9019;48.132;-1.210;2022-11-11T04:15:19;15.50;;;7.27;;
17790;SDS011;9019;48.132;-1.210;2022-11-11T04:18:04;15.53;;;7.23;;
17790;SDS011;9019;48.132;-1.210;2022-11-11T04:20:33;14.07;;;7.37;;
17790;SDS011;9019;48.132;-1.210;2022-11-11T04:23:16;17.43;;;7.10;;
17790;SDS011;9019;48.132;-1.210;2022-11-11T04:25:44;13.87;;;7.50;;
17790;SDS011;9019;48.132;-1.210;2022-11-11T04:28:17;13.20;;;7.23;;
17790;SDS011;9019;48.132;-1.210;2022-11-11T04:31:02;13.53;;;7.00;;
17790;SDS011;9019;48.132;-1.210;2022-11-11T04:33:29;17.17;;;7.53;;
17790;SDS011;9019;48.132;-1.210;2022-11-11T04:35:58;13.83;;;7.07;;
17790;SDS011;9019;48.132;-1.210;2022-11-11T04:38:25;14.23;;;7.60;;
17790;SDS011;9019;48.132;-1.210;2022-11-11T04:41:09;16.67;;;7.70;;
17790;SDS011;9019;48.132;-1.210;2022-11-11T04:43:37;16.67;;;8.33;;
17790;SDS011;9019;48.132;-1.210;2022-11-11T04:46:18;20.53;;;8.10;;
17790;SDS011;9019;48.132;-1.210;2022-11-11T04:48:45;17.00;;;8.20;;
17790;SDS011;9019;48.132;-1.210;2022-11-11T04:51:13;16.33;;;8.33;;
17790;SDS011;9019;48.132;-1.210;2022-11-11T04:53:41;13.70;;;7.80;;
17790;SDS011;9019;48.132;-1.210;2022-11-11T04:56:08;17.33;;;7.97;;
17790;SDS011;9019;48.132;-1.210;2022-11-11T04:58:52;16.27;;;7.30;;
17790;SDS011;9019;48.132;-1.210;2022-11-11T05:01:33;14.27;;;7.40;;
17790;SDS011;9019;48.132;-1.210;2022-11-11T05:04:18;15.93;;;7.30;;
17790;SDS011;9019;48.132;-1.210;2022-11-11T05:06:47;13.77;;;7.50;;
17790;SDS011;9019;48.132;-1.210;2022-11-11T05:09:32;16.13;;;7.07;;
17790;SDS011;9019;48.132;-1.210;2022-11-11T05:11:59;15.87;;;7.53;;
17790;SDS011;9019;48.132;-1.210;2022-11-11T05:14:26;17.47;;;7.97;;
17790;SDS011;9019;48.132;-1.210;2022-11-11T05:17:11;13.43;;;7.07;;
17790;SDS011;9019;48.132;-1.210;2022-11-11T05:19:56;11.20;;;6.83;;
17790;SDS011;9019;48.132;-1.210;2022-11-11T05:22:42;12.83;;;7.20;;
17790;SDS011;9019;48.132;-1.210;2022-11-11T05:25:09;13.40;;;7.27;;
17790;SDS011;9019;48.132;-1.210;2022-11-11T05:27:53;13.47;;;6.90;;
17790;SDS011;9019;48.132;-1.210;2022-11-11T05:30:21;14.67;;;7.90;;
17790;SDS011;9019;48.132;-1.210;2022-11-11T05:32:48;14.60;;;7.43;;
17790;SDS011;9019;48.132;-1.210;2022-11-11T05:35:15;15.17;;;7.97;;
17790;SDS011;9019;48.132;-1.210;2022-11-11T05:37:44;15.10;;;8.13;;
17790;SDS011;9019;48.132;-1.210;2022-11-11T05:40:32;15.97;;;7.40;;
17790;SDS011;9019;48.132;-1.210;2022-11-11T05:43:00;15.77;;;8.67;;
17790;SDS011;9019;48.132;-1.210;2022-11-11T05:45:27;15.70;;;7.93;;
17790;SDS011;9019;48.132;-1.210;2022-11-11T05:47:59;14.73;;;7.80;;
17790;SDS011;9019;48.132;-1.210;2022-11-11T05:50:26;17.23;;;8.37;;
17790;SDS011;9019;48.132;-1.210;2022-11-11T05:52:55;12.87;;;7.70;;
17790;SDS011;9019;48.132;-1.210;2022-11-11T05:55:22;14.73;;;7.90;;
17790;SDS011;9019;48.132;-1.210;2022-11-11T05:57:50;12.37;;;7.93;;
17790;SDS011;9019;48.132;-1.210;2022-11-11T06:00:17;17.20;;;8.73;;
17790;SDS011;9019;48.132;-1.210;2022-11-11T06:02:44;17.53;;;8.47;;
17790;SDS011;9019;48.132;-1.210;2022-11-11T06:05:11;16.20;;;8.80;;
17790;SDS011;9019;48.132;-1.210;2022-11-11T06:07:39;16.07;;;8.63;;
17790;SDS011;9019;48.132;-1.210;2022-11-11T06:10:08;19.33;;;8.83;;
17790;SDS011;9019;48.132;-1.210;2022-11-11T06:12:53;18.03;;;9.07;;
17790;SDS011;9019;48.132;-1.210;2022-11-11T06:15:34;16.77;;;9.03;;
17790;SDS011;9019;48.132;-1.210;2022-11-11T06:18:02;13.27;;;8.13;;
17790;SDS011;9019;48.132;-1.210;2022-11-11T06:20:29;15.40;;;8.20;;
17790;SDS011;9019;48.132;-1.210;2022-11-11T06:22:59;17.90;;;8.80;;
17790;SDS011;9019;48.132;-1.210;2022-11-11T06:25:28;14.63;;;8.50;;
17790;SDS011;9019;48.132;-1.210;2022-11-11T06:28:13;21.63;;;8.87;;
17790;SDS011;9019;48.132;-1.210;2022-11-11T06:30:40;16.23;;;8.67;;
17790;SDS011;9019;48.132;-1.210;2022-11-11T06:33:07;14.83;;;8.40;;
17790;SDS011;9019;48.132;-1.210;2022-11-11T06:35:35;16.33;;;8.37;;
17790;SDS011;9019;48.132;-1.210;2022-11-11T06:38:03;18.17;;;8.27;;
17790;SDS011;9019;48.132;-1.210;2022-11-11T06:40:32;20.37;;;9.00;;
17790;SDS011;9019;48.132;-1.210;2022-11-11T06:43:00;15.13;;;8.73;;
17790;SDS011;9019;48.132;-1.210;2022-11-11T06:45:27;20.77;;;9.97;;
17790;SDS011;9019;48.132;-1.210;2022-11-11T06:47:55;17.30;;;9.80;;
17790;SDS011;9019;48.132;-1.210;2022-11-11T06:50:22;18.77;;;10.60;;
17790;SDS011;9019;48.132;-1.210;2022-11-11T06:52:49;19.17;;;10.60;;
17790;SDS011;9019;48.132;-1.210;2022-11-11T06:55:16;18.07;;;10.60;;
17790;SDS011;9019;48.132;-1.210;2022-11-11T06:57:45;17.10;;;9.73;;
17790;SDS011;9019;48.132;-1.210;2022-11-11T07:00:13;20.60;;;10.40;;
17790;SDS011;9019;48.132;-1.210;2022-11-11T07:02:40;17.03;;;9.87;;
17790;SDS011;9019;48.132;-1.210;2022-11-11T07:05:07;16.40;;;10.07;;
17790;SDS011;9019;48.132;-1.210;2022-11-11T07:07:34;18.70;;;10.07;;
17790;SDS011;9019;48.132;-1.210;2022-11-11T07:10:02;20.20;;;9.87;;
17790;SDS011;9019;48.132;-1.210;2022-11-11T07:12:31;18.40;;;9.57;;
17790;SDS011;9019;48.132;-1.210;2022-11-11T07:14:59;16.83;;;10.47;;
17790;SDS011;9019;48.132;-1.210;2022-11-11T07:17:27;18.70;;;10.43;;
17790;SDS011;9019;48.132;-1.210;2022-11-11T07:19:54;16.13;;;9.47;;
17790;SDS011;9019;48.132;-1.210;2022-11-11T07:22:21;14.97;;;8.43;;
17790;SDS011;9019;48.132;-1.210;2022-11-11T07:24:48;14.47;;;8.43;;
17790;SDS011;9019;48.132;-1.210;2022-11-11T07:27:15;14.40;;;9.20;;
17790;SDS011;9019;48.132;-1.210;2022-11-11T07:29:42;15.00;;;9.60;;
17790;SDS011;9019;48.132;-1.210;2022-11-11T07:32:11;16.10;;;9.90;;
17790;SDS011;9019;48.132;-1.210;2022-11-11T07:34:38;15.00;;;8.50;;
17790;SDS011;9019;48.132;-1.210;2022-11-11T07:37:06;17.90;;;8.63;;
17790;SDS011;9019;48.132;-1.210;2022-11-11T07:39:33;21.03;;;9.83;;
17790;SDS011;9019;48.132;-1.210;2022-11-11T07:42:00;15.33;;;8.17;;
17790;SDS011;9019;48.132;-1.210;2022-11-11T07:44:27;13.37;;;8.77;;
17790;SDS011;9019;48.132;-1.210;2022-11-11T07:46:55;15.93;;;8.57;;
17790;SDS011;9019;48.132;-1.210;2022-11-11T07:49:23;14.23;;;8.97;;
17790;SDS011;9019;48.132;-1.210;2022-11-11T07:51:50;14.33;;;8.40;;
17790;SDS011;9019;48.132;-1.210;2022-11-11T07:54:17;16.93;;;9.07;;
17790;SDS011;9019;48.132;-1.210;2022-11-11T07:56:45;17.67;;;8.90;;
17790;SDS011;9019;48.132;-1.210;2022-11-11T07:59:12;18.23;;;9.40;;
17790;SDS011;9019;48.132;-1.210;2022-11-11T08:01:39;14.30;;;8.77;;
17790;SDS011;9019;48.132;-1.210;2022-11-11T08:04:07;14.97;;;8.90;;
17790;SDS011;9019;48.132;-1.210;2022-11-11T08:06:35;15.77;;;9.00;;
17790;SDS011;9019;48.132;-1.210;2022-11-11T08:09:02;17.50;;;9.33;;
17790;SDS011;9019;48.132;-1.210;2022-11-11T08:11:30;16.67;;;9.53;;
17790;SDS011;9019;48.132;-1.210;2022-11-11T08:14:15;16.13;;;9.70;;
17790;SDS011;9019;48.132;-1.210;2022-11-11T08:16:42;18.43;;;10.27;;
17790;SDS011;9019;48.132;-1.210;2022-11-11T08:19:09;20.03;;;10.83;;
17790;SDS011;9019;48.132;-1.210;2022-11-11T08:21:37;18.13;;;10.10;;
17790;SDS011;9019;48.132;-1.210;2022-11-11T08:24:05;20.07;;;9.60;;
17790;SDS011;9019;48.132;-1.210;2022-11-11T08:26:33;16.70;;;9.60;;
17790;SDS011;9019;48.132;-1.210;2022-11-11T08:29:00;18.53;;;9.63;;
17790;SDS011;9019;48.132;-1.210;2022-11-11T08:31:27;16.00;;;9.90;;
17790;SDS011;9019;48.132;-1.210;2022-11-11T08:33:54;14.83;;;9.73;;
17790;SDS011;9019;48.132;-1.210;2022-11-11T08:36:21;17.43;;;9.90;;
17790;SDS011;9019;48.132;-1.210;2022-11-11T08:38:51;16.93;;;9.23;;
17790;SDS011;9019;48.132;-1.210;2022-11-11T08:41:19;17.07;;;9.43;;
17790;SDS011;9019;48.132;-1.210;2022-11-11T08:43:50;19.93;;;9.93;;
17790;SDS011;9019;48.132;-1.210;2022-11-11T08:46:17;17.97;;;10.33;;
17790;SDS011;9019;48.132;-1.210;2022-11-11T08:48:44;21.03;;;10.57;;
17790;SDS011;9019;48.132;-1.210;2022-11-11T08:51:11;17.93;;;10.33;;
17790;SDS011;9019;48.132;-1.210;2022-11-11T08:53:39;20.13;;;10.83;;
17790;SDS011;9019;48.132;-1.210;2022-11-11T08:56:07;21.00;;;11.13;;
17790;SDS011;9019;48.132;-1.210;2022-11-11T08:58:36;17.83;;;10.50;;
17790;SDS011;9019;48.132;-1.210;2022-11-11T09:01:03;20.70;;;12.13;;
17790;SDS011;9019;48.132;-1.210;2022-11-11T09:03:30;18.70;;;10.50;;
17790;SDS011;9019;48.132;-1.210;2022-11-11T09:05:58;19.27;;;10.63;;
17790;SDS011;9019;48.132;-1.210;2022-11-11T09:08:25;15.10;;;9.50;;
17790;SDS011;9019;48.132;-1.210;2022-11-11T09:10:52;14.97;;;9.30;;
17790;SDS011;9019;48.132;-1.210;2022-11-11T09:13:21;16.30;;;10.07;;
17790;SDS011;9019;48.132;-1.210;2022-11-11T09:15:48;23.77;;;15.83;;
17790;SDS011;9019;48.132;-1.210;2022-11-11T09:18:15;18.93;;;11.50;;
17790;SDS011;9019;48.132;-1.210;2022-11-11T09:20:42;21.60;;;12.33;;
17790;SDS011;9019;48.132;-1.210;2022-11-11T09:23:09;15.90;;;10.17;;
17790;SDS011;9019;48.132;-1.210;2022-11-11T09:25:37;15.70;;;10.07;;
17790;SDS011;9019;48.132;-1.210;2022-11-11T09:28:04;18.97;;;11.10;;
17790;SDS011;9019;48.132;-1.210;2022-11-11T09:30:33;16.97;;;10.10;;
17790;SDS011;9019;48.132;-1.210;2022-11-11T09:33:05;16.73;;;10.03;;
17790;SDS011;9019;48.132;-1.210;2022-11-11T09:35:33;12.07;;;8.67;;
17790;SDS011;9019;48.132;-1.210;2022-11-11T09:38:01;12.23;;;7.63;;
17790;SDS011;9019;48.132;-1.210;2022-11-11T09:40:34;14.17;;;9.07;;
17790;SDS011;9019;48.132;-1.210;2022-11-11T09:43:09;15.20;;;9.23;;
17790;SDS011;9019;48.132;-1.210;2022-11-11T09:45:43;13.30;;;9.20;;
17790;SDS011;9019;48.132;-1.210;2022-11-11T09:48:19;14.67;;;10.13;;
17790;SDS011;9019;48.132;-1.210;2022-11-11T09:50:51;16.40;;;10.33;;
17790;SDS011;9019;48.132;-1.210;2022-11-11T09:53:21;12.13;;;9.03;;
17790;SDS011;9019;48.132;-1.210;2022-11-11T09:55:51;33.13;;;23.27;;
17790;SDS011;9019;48.132;-1.210;2022-11-11T09:58:19;15.00;;;10.07;;
17790;SDS011;9019;48.132;-1.210;2022-11-11T10:00:50;14.97;;;10.13;;
17790;SDS011;9019;48.132;-1.210;2022-11-11T10:03:21;12.17;;;9.00;;
17790;SDS011;9019;48.132;-1.210;2022-11-11T10:05:51;14.30;;;9.77;;
17790;SDS011;9019;48.132;-1.210;2022-11-11T10:08:22;10.90;;;7.87;;
17790;SDS011;9019;48.132;-1.210;2022-11-11T10:10:51;10.43;;;8.17;;
17790;SDS011;9019;48.132;-1.210;2022-11-11T10:13:20;12.93;;;8.77;;
17790;SDS011;9019;48.132;-1.210;2022-11-11T10:15:53;12.33;;;9.23;;
17790;SDS011;9019;48.132;-1.210;2022-11-11T10:18:27;11.20;;;9.27;;
17790;SDS011;9019;48.132;-1.210;2022-11-11T10:20:55;9.53;;;7.87;;
17790;SDS011;9019;48.132;-1.210;2022-11-11T10:23:31;10.13;;;7.67;;
17790;SDS011;9019;48.132;-1.210;2022-11-11T10:26:11;9.43;;;7.67;;
17790;SDS011;9019;48.132;-1.210;2022-11-11T10:28:42;9.20;;;6.77;;
17790;SDS011;9019;48.132;-1.210;2022-11-11T10:31:12;8.10;;;7.30;;
17790;SDS011;9019;48.132;-1.210;2022-11-11T10:33:41;11.33;;;7.57;;
17790;SDS011;9019;48.132;-1.210;2022-11-11T10:36:13;8.90;;;6.80;;
17790;SDS011;9019;48.132;-1.210;2022-11-11T10:38:45;8.63;;;6.17;;
17790;SDS011;9019;48.132;-1.210;2022-11-11T10:41:18;8.53;;;6.10;;
17790;SDS011;9019;48.132;-1.210;2022-11-11T10:43:46;8.40;;;6.47;;
17790;SDS011;9019;48.132;-1.210;2022-11-11T10:46:16;8.50;;;6.80;;
17790;SDS011;9019;48.132;-1.210;2022-11-11T10:48:47;9.30;;;6.13;;
17790;SDS011;9019;48.132;-1.210;2022-11-11T10:51:17;8.67;;;6.77;;
17790;SDS011;9019;48.132;-1.210;2022-11-11T10:53:47;10.90;;;7.10;;
17790;SDS011;9019;48.132;-1.210;2022-11-11T10:56:19;9.67;;;7.00;;
17790;SDS011;9019;48.132;-1.210;2022-11-11T10:58:49;9.70;;;7.07;;
17790;SDS011;9019;48.132;-1.210;2022-11-11T11:01:22;9.83;;;7.17;;
17790;SDS011;9019;48.132;-1.210;2022-11-11T11:03:56;11.60;;;7.73;;
17790;SDS011;9019;48.132;-1.210;2022-11-11T11:06:26;10.00;;;7.30;;
17790;SDS011;9019;48.132;-1.210;2022-11-11T11:08:56;10.20;;;7.20;;
17790;SDS011;9019;48.132;-1.210;2022-11-11T11:11:28;10.63;;;8.03;;
17790;SDS011;9019;48.132;-1.210;2022-11-11T11:13:57;12.47;;;8.50;;
17790;SDS011;9019;48.132;-1.210;2022-11-11T11:16:29;11.27;;;8.63;;
17790;SDS011;9019;48.132;-1.210;2022-11-11T11:19:14;12.83;;;8.60;;
17790;SDS011;9019;48.132;-1.210;2022-11-11T11:21:46;13.40;;;9.13;;
17790;SDS011;9019;48.132;-1.210;2022-11-11T11:24:17;12.03;;;8.93;;
17790;SDS011;9019;48.132;-1.210;2022-11-11T11:26:45;13.83;;;9.53;;
17790;SDS011;9019;48.132;-1.210;2022-11-11T11:29:21;14.23;;;9.73;;
17790;SDS011;9019;48.132;-1.210;2022-11-11T11:31:52;13.73;;;9.30;;
17790;SDS011;9019;48.132;-1.210;2022-11-11T11:34:39;11.93;;;9.27;;
17790;SDS011;9019;48.132;-1.210;2022-11-11T11:37:12;11.93;;;8.63;;
17790;SDS011;9019;48.132;-1.210;2022-11-11T11:39:48;12.67;;;9.00;;
17790;SDS011;9019;48.132;-1.210;2022-11-11T11:42:28;11.93;;;9.27;;
17790;SDS011;9019;48.132;-1.210;2022-11-11T11:44:56;13.80;;;10.23;;
17790;SDS011;9019;48.132;-1.210;2022-11-11T11:47:31;13.33;;;10.10;;
17790;SDS011;9019;48.132;-1.210;2022-11-11T11:50:16;16.50;;;12.00;;
17790;SDS011;9019;48.132;-1.210;2022-11-11T11:52:49;12.87;;;9.30;;
17790;SDS011;9019;48.132;-1.210;2022-11-11T11:55:20;12.77;;;9.83;;
17790;SDS011;9019;48.132;-1.210;2022-11-11T11:57:51;13.03;;;10.07;;
17790;SDS011;9019;48.132;-1.210;2022-11-11T12:00:20;12.80;;;9.90;;
17790;SDS011;9019;48.132;-1.210;2022-11-11T12:02:55;13.63;;;9.90;;
17790;SDS011;9019;48.132;-1.210;2022-11-11T12:05:25;15.97;;;10.90;;
17790;SDS011;9019;48.132;-1.210;2022-11-11T12:07:57;14.93;;;11.07;;
17790;SDS011;9019;48.132;-1.210;2022-11-11T12:10:30;16.97;;;10.90;;
17790;SDS011;9019;48.132;-1.210;2022-11-11T12:13:02;16.73;;;12.17;;
17790;SDS011;9019;48.132;-1.210;2022-11-11T12:15:35;15.37;;;10.97;;
17790;SDS011;9019;48.132;-1.210;2022-11-11T12:18:11;13.60;;;10.77;;
17790;SDS011;9019;48.132;-1.210;2022-11-11T12:20:43;15.80;;;10.83;;
17790;SDS011;9019;48.132;-1.210;2022-11-11T12:23:21;13.60;;;10.30;;
17790;SDS011;9019;48.132;-1.210;2022-11-11T12:25:53;13.83;;;9.90;;
17790;SDS011;9019;48.132;-1.210;2022-11-11T12:28:27;16.27;;;10.23;;
17790;SDS011;9019;48.132;-1.210;2022-11-11T12:30:58;14.90;;;10.10;;
17790;SDS011;9019;48.132;-1.210;2022-11-11T12:36:15;13.60;;;10.53;;
17790;SDS011;9019;48.132;-1.210;2022-11-11T12:38:51;14.23;;;10.30;;
17790;SDS011;9019;48.132;-1.210;2022-11-11T12:41:25;14.13;;;10.70;;
17790;SDS011;9019;48.132;-1.210;2022-11-11T12:43:55;14.23;;;10.07;;
17790;SDS011;9019;48.132;-1.210;2022-11-11T12:46:30;14.03;;;9.83;;
17790;SDS011;9019;48.132;-1.210;2022-11-11T12:49:02;15.03;;;9.67;;
17790;SDS011;9019;48.132;-1.210;2022-11-11T12:51:43;13.30;;;9.33;;
17790;SDS011;9019;48.132;-1.210;2022-11-11T12:54:16;12.17;;;9.33;;
17790;SDS011;9019;48.132;-1.210;2022-11-11T12:56:50;14.50;;;10.20;;
17790;SDS011;9019;48.132;-1.210;2022-11-11T12:59:23;12.53;;;9.53;;
17790;SDS011;9019;48.132;-1.210;2022-11-11T13:01:54;13.53;;;8.97;;
17790;SDS011;9019;48.132;-1.210;2022-11-11T13:04:26;10.97;;;8.87;;
17790;SDS011;9019;48.132;-1.210;2022-11-11T13:07:00;9.73;;;8.23;;
17790;SDS011;9019;48.132;-1.210;2022-11-11T13:09:37;10.63;;;8.60;;
17790;SDS011;9019;48.132;-1.210;2022-11-11T13:12:06;13.03;;;8.00;;
17790;SDS011;9019;48.132;-1.210;2022-11-11T13:17:17;11.47;;;8.03;;
17790;SDS011;9019;48.132;-1.210;2022-11-11T13:19:47;11.13;;;8.30;;
17790;SDS011;9019;48.132;-1.210;2022-11-11T13:22:20;11.87;;;8.27;;
17790;SDS011;9019;48.132;-1.210;2022-11-11T13:25:01;13.97;;;9.23;;
17790;SDS011;9019;48.132;-1.210;2022-11-11T13:27:32;11.47;;;8.23;;
17790;SDS011;9019;48.132;-1.210;2022-11-11T13:30:03;10.57;;;8.37;;
17790;SDS011;9019;48.132;-1.210;2022-11-11T13:32:51;11.23;;;8.30;;
17790;SDS011;9019;48.132;-1.210;2022-11-11T13:35:34;11.73;;;8.60;;
17790;SDS011;9019;48.132;-1.210;2022-11-11T13:38:03;11.57;;;8.40;;
17790;SDS011;9019;48.132;-1.210;2022-11-11T13:40:35;12.47;;;9.17;;
17790;SDS011;9019;48.132;-1.210;2022-11-11T13:43:03;10.00;;;7.97;;
17790;SDS011;9019;48.132;-1.210;2022-11-11T13:45:32;11.47;;;7.90;;
17790;SDS011;9019;48.132;-1.210;2022-11-11T13:48:00;14.40;;;9.23;;
17790;SDS011;9019;48.132;-1.210;2022-11-11T13:50:29;8.90;;;7.27;;
17790;SDS011;9019;48.132;-1.210;2022-11-11T13:52:58;10.77;;;7.03;;
17790;SDS011;9019;48.132;-1.210;2022-11-11T13:55:30;9.10;;;7.20;;
17790;SDS011;9019;48.132;-1.210;2022-11-11T13:57:58;10.50;;;7.97;;
17790;SDS011;9019;48.132;-1.210;2022-11-11T14:00:28;11.47;;;8.53;;
17790;SDS011;9019;48.132;-1.210;2022-11-11T14:05:42;9.30;;;8.30;;
17790;SDS011;9019;48.132;-1.210;2022-11-11T14:08:10;10.70;;;7.90;;
17790;SDS011;9019;48.132;-1.210;2022-11-11T14:10:58;12.53;;;7.77;;
17790;SDS011;9019;48.132;-1.210;2022-11-11T14:13:36;10.23;;;8.20;;
17790;SDS011;9019;48.132;-1.210;2022-11-11T14:16:03;11.93;;;8.40;;
17790;SDS011;9019;48.132;-1.210;2022-11-11T14:18:38;11.03;;;7.83;;
17790;SDS011;9019;48.132;-1.210;2022-11-11T14:21:06;12.23;;;8.20;;
17790;SDS011;9019;48.132;-1.210;2022-11-11T14:23:35;10.77;;;8.27;;
17790;SDS011;9019;48.132;-1.210;2022-11-11T14:26:21;11.60;;;8.73;;
17790;SDS011;9019;48.132;-1.210;2022-11-11T14:28:49;11.63;;;8.43;;
17790;SDS011;9019;48.132;-1.210;2022-11-11T14:31:29;13.10;;;10.30;;
17790;SDS011;9019;48.132;-1.210;2022-11-11T14:33:58;15.73;;;11.93;;
17790;SDS011;9019;48.132;-1.210;2022-11-11T14:36:29;21.03;;;15.50;;
17790;SDS011;9019;48.132;-1.210;2022-11-11T14:39:04;18.23;;;14.30;;
17790;SDS011;9019;48.132;-1.210;2022-11-11T14:41:47;10.20;;;8.30;;
17790;SDS011;9019;48.132;-1.210;2022-11-11T14:49:45;16.73;;;11.97;;
17790;SDS011;9019;48.132;-1.210;2022-11-11T14:52:17;9.63;;;7.60;;
17790;SDS011;9019;48.132;-1.210;2022-11-11T14:57:34;10.90;;;8.10;;
17790;SDS011;9019;48.132;-1.210;2022-11-11T15:00:03;10.50;;;7.50;;
17790;SDS011;9019;48.132;-1.210;2022-11-11T15:02:32;9.73;;;7.37;;
17790;SDS011;9019;48.132;-1.210;2022-11-11T15:05:01;10.80;;;7.67;;
17790;SDS011;9019;48.132;-1.210;2022-11-11T15:07:35;9.30;;;7.33;;
17790;SDS011;9019;48.132;-1.210;2022-11-11T15:10:11;8.67;;;7.20;;